Time;durP1;ratioP1;P1;durP2;ratioP2;P2;SDS_P1;SDS_P2;PMS_P1;PMS_P2;Temp;Humidity;BMP_temperature;BMP_pressure;BME280_temperature;BME280_humidity;BME280_pressure;Samples;Min_cycle;Max_cycle;Signal;HPM_P1;HPM_P2
2021/09/02 00:01:36;;;;;;;13.95;5.15;;;;;;;13.49;93.23;98764.94;4992802;28;20022;-80
2021/09/02 00:04:02;;;;;;;13.02;5.43;;;;;;;13.41;93.64;98756.25;5012559;28;20093;-82
2021/09/02 00:06:27;;;;;;;7.22;5.03;;;;;;;13.47;93.48;98754.22;5023616;28;20463;-81
2021/09/02 00:08:53;;;;;;;11.40;5.60;;;;;;;13.34;93.87;98749.47;5012089;28;20118;-79
2021/09/02 00:11:18;;;;;;;8.68;4.80;;;;;;;13.44;93.42;98746.56;5009681;28;20010;-84
2021/09/02 00:13:44;;;;;;;7.63;4.72;;;;;;;13.48;93.59;98761.38;5010607;28;20041;-83
2021/09/02 00:16:09;;;;;;;8.98;5.80;;;;;;;13.53;92.92;98755.84;5010875;28;20108;-82
2021/09/02 00:18:35;;;;;;;6.50;5.60;;;;;;;13.42;92.56;98743.31;5008850;28;20448;-82
2021/09/02 00:21:00;;;;;;;7.53;4.32;;;;;;;13.43;92.98;98736.72;5016110;28;20029;-83
2021/09/02 00:23:26;;;;;;;7.88;6.57;;;;;;;13.54;92.36;98742.88;5030098;28;20037;-83
2021/09/02 00:25:51;;;;;;;6.07;4.25;;;;;;;13.68;91.74;98747.38;5030016;28;20033;-83
2021/09/02 00:28:17;;;;;;;9.48;4.90;;;;;;;13.60;91.39;98734.28;5030425;28;20032;-79
2021/09/02 00:30:42;;;;;;;6.82;5.32;;;;;;;13.57;91.56;98748.63;5021027;28;20044;-82
2021/09/02 00:33:16;;;;;;;8.75;4.82;;;;;;;13.41;92.94;98744.41;5031381;28;20094;-80
2021/09/02 00:35:42;;;;;;;10.73;4.57;;;;;;;13.42;93.21;98748.81;5033679;28;20075;-79
2021/09/02 00:38:08;;;;;;;12.25;5.30;;;;;;;13.29;93.82;98757.75;5033243;28;20053;-81
2021/09/02 00:40:33;;;;;;;6.70;4.47;;;;;;;13.18;94.30;98748.84;5033203;28;20052;-78
2021/09/02 00:42:59;;;;;;;7.95;4.63;;;;;;;13.20;95.02;98746.63;5034148;28;20072;-80
2021/09/02 00:45:24;;;;;;;7.97;5.05;;;;;;;13.27;95.35;98744.34;5034190;28;20554;-82
2021/09/02 00:47:50;;;;;;;6.72;5.30;;;;;;;13.31;93.79;98758.31;5035598;28;20023;-83
2021/09/02 00:50:15;;;;;;;14.48;5.07;;;;;;;13.20;94.82;98751.28;5048403;28;20081;-81
2021/09/02 00:52:43;;;;;;;7.10;4.90;;;;;;;13.07;95.96;98752.78;5045153;28;20474;-85
2021/09/02 00:55:09;;;;;;;7.60;4.85;;;;;;;13.09;96.29;98758.00;5036274;28;20422;-81
2021/09/02 00:57:35;;;;;;;7.55;5.20;;;;;;;13.12;95.98;98757.44;5017631;28;20113;-80
2021/09/02 01:00:14;;;;;;;7.57;4.63;;;;;;;12.91;97.04;98754.03;5012509;28;20421;-81
2021/09/02 01:02:45;;;;;;;7.85;4.50;;;;;;;12.79;97.67;98757.19;5011938;28;20034;-82
2021/09/02 01:05:13;;;;;;;11.45;5.05;;;;;;;12.76;97.61;98757.75;5013860;28;20030;-82
2021/09/02 01:07:39;;;;;;;6.75;4.93;;;;;;;12.54;98.44;98751.13;5013649;28;20478;-82
2021/09/02 01:10:06;;;;;;;7.90;4.78;;;;;;;12.46;99.39;98759.97;5013067;28;20080;-82
2021/09/02 01:12:33;;;;;;;9.98;4.80;;;;;;;12.48;99.32;98766.81;5011723;28;20123;-82
2021/09/02 01:15:05;;;;;;;10.10;4.78;;;;;;;12.49;99.14;98748.44;5028072;28;20040;-80
2021/09/02 01:17:31;;;;;;;9.25;4.70;;;;;;;12.57;98.32;98751.34;5014908;28;20090;-78
2021/09/02 01:19:57;;;;;;;6.25;4.18;;;;;;;12.77;97.73;98753.94;5032481;28;20061;-80
2021/09/02 01:22:25;;;;;;;6.80;4.47;;;;;;;12.77;97.41;98753.09;5032653;28;20029;-82
2021/09/02 01:24:51;;;;;;;5.10;4.15;;;;;;;12.70;96.97;98742.47;5032877;28;20109;-80
2021/09/02 01:27:18;;;;;;;6.07;4.80;;;;;;;12.48;98.38;98746.78;5015660;28;20112;-81
2021/09/02 01:29:49;;;;;;;8.60;5.97;;;;;;;12.44;99.15;98753.94;5016145;28;20021;-85
2021/09/02 01:32:14;;;;;;;6.28;4.60;;;;;;;12.29;99.11;98739.25;5032208;28;20044;-83
2021/09/02 01:34:40;;;;;;;9.95;5.05;;;;;;;12.51;99.01;98748.94;5032976;28;20071;-80
2021/09/02 01:37:05;;;;;;;7.43;4.35;;;;;;;12.51;98.75;98737.97;5045373;28;20041;-81
2021/09/02 01:39:30;;;;;;;6.15;4.57;;;;;;;12.48;98.84;98739.38;5051570;28;20400;-80
2021/09/02 01:41:56;;;;;;;6.55;4.70;;;;;;;12.46;99.20;98738.03;5036698;28;20029;-80
2021/09/02 01:44:21;;;;;;;7.07;4.28;;;;;;;12.43;99.16;98731.19;5012767;28;20076;-83
2021/09/02 01:46:47;;;;;;;11.57;4.82;;;;;;;12.41;99.31;98740.78;5013485;28;20489;-78
2021/09/02 01:49:12;;;;;;;9.07;5.25;;;;;;;12.51;98.59;98752.50;4995638;28;20449;-79
2021/09/02 01:51:38;;;;;;;8.93;5.38;;;;;;;12.53;98.88;98731.09;5018260;28;20026;-80
2021/09/02 01:54:03;;;;;;;7.13;5.15;;;;;;;12.45;98.95;98736.38;5015731;28;20018;-79
2021/09/02 01:56:29;;;;;;;8.77;5.28;;;;;;;12.54;98.52;98745.63;5013823;28;20028;-80
2021/09/02 01:58:56;;;;;;;7.15;5.15;;;;;;;12.60;97.66;98733.50;5015294;28;20057;-79
2021/09/02 02:01:21;;;;;;;5.20;4.05;;;;;;;12.68;98.11;98752.09;5012987;28;20026;-78
2021/09/02 02:03:46;;;;;;;9.07;4.60;;;;;;;12.70;97.68;98742.47;5013491;28;20034;-78
2021/09/02 02:06:12;;;;;;;6.25;4.97;;;;;;;12.61;97.10;98746.94;5013049;28;20475;-78
2021/09/02 02:08:37;;;;;;;6.93;4.22;;;;;;;12.48;98.72;98744.88;5029925;28;20029;-80
2021/09/02 02:11:03;;;;;;;6.43;4.97;;;;;;;12.77;97.15;98747.63;5032735;28;20390;-83
2021/09/02 02:13:28;;;;;;;12.23;4.63;;;;;;;12.42;98.40;98729.56;5034348;28;20025;-83
2021/09/02 02:15:53;;;;;;;10.65;5.38;;;;;;;12.36;99.60;98741.69;5032865;28;20022;-78
2021/09/02 02:18:19;;;;;;;9.18;4.88;;;;;;;12.27;99.54;98725.03;5033812;28;20447;-79
2021/09/02 02:20:44;;;;;;;8.18;4.85;;;;;;;12.07;100.00;98727.09;5038969;28;20104;-79
2021/09/02 02:23:10;;;;;;;7.85;4.78;;;;;;;12.12;100.00;98738.84;5043928;28;20059;-79
2021/09/02 02:25:35;;;;;;;6.95;5.53;;;;;;;12.22;100.00;98729.72;5033615;28;20033;-81
2021/09/02 02:28:00;;;;;;;7.38;5.65;;;;;;;12.40;99.74;98734.53;5032851;28;20040;-82
2021/09/02 02:30:26;;;;;;;7.80;4.90;;;;;;;12.17;99.95;98725.09;5032823;28;20375;-79
2021/09/02 02:32:52;;;;;;;9.00;5.13;;;;;;;12.21;100.00;98734.41;5032432;28;20025;-80
2021/09/02 02:35:22;;;;;;;8.82;5.65;;;;;;;12.13;100.00;98726.78;5030980;28;20025;-79
2021/09/02 02:37:49;;;;;;;7.20;5.00;;;;;;;11.84;100.00;98722.34;5032580;28;20452;-81
2021/09/02 02:40:15;;;;;;;8.88;5.63;;;;;;;11.79;100.00;98724.00;5031384;28;20486;-78
2021/09/02 02:42:43;;;;;;;8.27;5.15;;;;;;;12.01;100.00;98715.34;5032938;28;20072;-80
2021/09/02 02:45:09;;;;;;;14.98;6.68;;;;;;;11.97;100.00;98732.66;5033565;28;20029;-79
2021/09/02 02:47:34;;;;;;;8.57;5.38;;;;;;;11.99;100.00;98714.00;5032872;28;20041;-80
2021/09/02 02:50:00;;;;;;;7.13;5.07;;;;;;;12.11;100.00;98728.16;5031646;28;20025;-79
2021/09/02 02:52:25;;;;;;;5.45;4.68;;;;;;;11.96;100.00;98726.38;5031731;28;20025;-78
2021/09/02 02:54:51;;;;;;;7.00;5.45;;;;;;;11.93;100.00;98715.16;5013565;28;20029;-81
2021/09/02 02:57:16;;;;;;;8.05;5.53;;;;;;;11.87;100.00;98714.38;5029888;28;20021;-80
2021/09/02 02:59:42;;;;;;;7.22;5.20;;;;;;;11.98;100.00;98728.81;5031383;28;20029;-78
2021/09/02 03:02:13;;;;;;;5.72;4.68;;;;;;;11.94;100.00;98730.47;5030168;28;20141;-81
2021/09/02 03:04:38;;;;;;;19.48;7.82;;;;;;;11.75;100.00;98720.19;5031346;28;20037;-79
2021/09/02 03:07:07;;;;;;;5.70;4.50;;;;;;;11.54;100.00;98718.66;5031435;28;20034;-79
2021/09/02 03:09:32;;;;;;;10.10;5.05;;;;;;;11.57;100.00;98718.09;5031677;28;20083;-81
2021/09/02 03:12:01;;;;;;;7.57;4.30;;;;;;;11.64;100.00;98729.56;5014844;28;20029;-79
2021/09/02 03:14:26;;;;;;;6.70;4.95;;;;;;;11.63;100.00;98722.44;5033396;28;20673;-80
2021/09/02 03:16:52;;;;;;;11.98;5.65;;;;;;;11.49;100.00;98731.56;5031728;28;20083;-82
2021/09/02 03:19:17;;;;;;;10.18;4.57;;;;;;;11.49;100.00;98740.59;5032838;28;20027;-78
2021/09/02 03:21:42;;;;;;;6.85;5.00;;;;;;;11.27;100.00;98737.41;5038082;28;20063;-79
2021/09/02 03:24:08;;;;;;;7.05;4.97;;;;;;;11.59;100.00;98739.72;5043078;28;20032;-79
2021/09/02 03:26:33;;;;;;;7.25;5.22;;;;;;;11.50;100.00;98736.75;5033254;28;20477;-81
2021/09/02 03:28:59;;;;;;;7.53;4.88;;;;;;;11.52;100.00;98737.31;5032128;28;20394;-78
2021/09/02 03:31:24;;;;;;;9.23;5.50;;;;;;;11.51;100.00;98752.09;5031156;28;20044;-82
2021/09/02 03:33:49;;;;;;;7.50;5.38;;;;;;;11.36;100.00;98738.47;5030839;28;20028;-80
2021/09/02 03:36:15;;;;;;;10.57;5.78;;;;;;;11.36;100.00;98757.66;5030677;28;20191;-79
2021/09/02 03:38:40;;;;;;;6.88;4.60;;;;;;;11.33;100.00;98750.00;5013266;28;20547;-81
2021/09/02 03:41:06;;;;;;;5.55;4.95;;;;;;;11.23;100.00;98736.34;5030502;28;20044;-80
2021/09/02 03:43:31;;;;;;;5.68;4.45;;;;;;;11.26;100.00;98749.47;5031615;28;20040;-80
2021/09/02 03:45:56;;;;;;;7.35;5.15;;;;;;;11.32;100.00;98733.81;5030935;28;20034;-79
2021/09/02 03:48:22;;;;;;;8.10;4.70;;;;;;;11.24;100.00;98752.47;5031165;28;20030;-79
2021/09/02 03:50:48;;;;;;;7.35;4.30;;;;;;;11.11;100.00;98738.56;5031197;28;20482;-79
2021/09/02 03:53:13;;;;;;;8.27;4.45;;;;;;;11.22;100.00;98749.19;5030791;28;20034;-79
2021/09/02 03:55:38;;;;;;;9.55;4.93;;;;;;;11.15;100.00;98747.88;5031189;28;20371;-80
2021/09/02 03:58:07;;;;;;;7.18;4.57;;;;;;;11.15;100.00;98743.19;5030708;28;20025;-80
2021/09/02 04:00:33;;;;;;;9.18;5.57;;;;;;;11.13;100.00;98755.53;5030865;28;20033;-80
2021/09/02 04:02:58;;;;;;;7.18;5.20;;;;;;;10.96;100.00;98744.94;5027109;28;20087;-81
2021/09/02 04:05:24;;;;;;;7.97;4.70;;;;;;;10.98;100.00;98758.31;5021054;28;20022;-79
2021/09/02 04:07:49;;;;;;;6.38;4.50;;;;;;;11.20;100.00;98764.28;5037480;28;20116;-82
2021/09/02 04:10:15;;;;;;;5.60;4.30;;;;;;;11.28;100.00;98766.41;5034555;28;20124;-79
2021/09/02 04:12:40;;;;;;;9.90;5.13;;;;;;;11.23;100.00;98760.97;5035287;28;20025;-80
2021/09/02 04:15:06;;;;;;;7.82;5.18;;;;;;;11.17;100.00;98756.63;5017667;28;20120;-78
2021/09/02 04:17:33;;;;;;;7.97;5.05;;;;;;;11.11;100.00;98769.50;5036343;28;20069;-81
2021/09/02 04:19:58;;;;;;;7.43;4.78;;;;;;;11.09;100.00;98754.44;5035032;28;20496;-80
2021/09/02 04:22:24;;;;;;;8.95;4.95;;;;;;;11.05;100.00;98772.53;5034256;28;20128;-82
2021/09/02 04:24:49;;;;;;;8.93;5.72;;;;;;;11.06;100.00;98755.00;5034428;28;20033;-80
2021/09/02 04:27:17;;;;;;;9.90;4.85;;;;;;;11.29;100.00;98743.44;5016717;28;20037;-77
2021/09/02 04:29:42;;;;;;;8.85;5.15;;;;;;;11.48;100.00;98762.78;5034570;28;20032;-80
2021/09/02 04:32:08;;;;;;;7.35;4.82;;;;;;;11.47;100.00;98756.47;5034272;28;20159;-81
2021/09/02 04:34:34;;;;;;;9.50;4.13;;;;;;;11.43;100.00;98763.66;5016010;28;20497;-78
2021/09/02 04:36:59;;;;;;;7.13;5.13;;;;;;;11.36;100.00;98760.38;5033670;28;20042;-78
2021/09/02 04:39:25;;;;;;;8.65;5.75;;;;;;;11.43;100.00;98765.56;5034115;28;20038;-77
2021/09/02 04:41:50;;;;;;;11.55;4.53;;;;;;;11.21;100.00;98763.97;5034131;28;20532;-79
2021/09/02 04:44:15;;;;;;;7.10;5.22;;;;;;;11.24;100.00;98763.41;5016584;28;20024;-82
2021/09/02 04:46:41;;;;;;;10.07;5.82;;;;;;;11.32;100.00;98770.25;5033881;28;20382;-79
2021/09/02 04:49:06;;;;;;;10.52;5.65;;;;;;;11.26;100.00;98757.69;5034111;28;20458;-80
2021/09/02 04:51:32;;;;;;;13.73;5.80;;;;;;;11.16;100.00;98754.97;5034092;28;20029;-80
2021/09/02 04:53:57;;;;;;;8.30;5.47;;;;;;;11.20;100.00;98751.41;5018820;28;20458;-81
2021/09/02 04:56:22;;;;;;;9.35;6.10;;;;;;;11.45;100.00;98757.88;5033524;28;20037;-79
2021/09/02 04:58:49;;;;;;;11.00;5.78;;;;;;;11.58;100.00;98777.28;5040617;28;20022;-81
2021/09/02 05:01:17;;;;;;;11.90;6.47;;;;;;;11.60;99.56;98755.88;5043907;28;20010;-84
2021/09/02 05:03:42;;;;;;;11.75;6.65;;;;;;;11.56;100.00;98764.97;5016446;28;20033;-82
2021/09/02 05:06:08;;;;;;;11.98;6.43;;;;;;;11.61;100.00;98768.50;5034667;28;20030;-86
2021/09/02 05:08:33;;;;;;;22.05;7.18;;;;;;;11.72;99.56;98741.84;5034486;28;20584;-86
2021/09/02 05:10:58;;;;;;;10.60;6.68;;;;;;;12.02;98.58;98780.06;5035321;28;20022;-81
2021/09/02 05:13:24;;;;;;;14.70;7.13;;;;;;;12.17;97.66;98781.88;5016154;28;20567;-76
2021/09/02 05:15:49;;;;;;;8.63;5.97;;;;;;;12.36;96.13;98782.84;5013972;28;20500;-78
2021/09/02 05:18:18;;;;;;;9.82;6.82;;;;;;;12.37;95.90;98787.22;5021643;28;20388;-76
2021/09/02 05:20:44;;;;;;;10.63;6.15;;;;;;;12.37;95.48;98781.72;5031508;28;20063;-76
2021/09/02 05:23:09;;;;;;;11.23;6.47;;;;;;;12.45;95.53;98794.00;5035304;28;20116;-78
2021/09/02 05:25:34;;;;;;;12.60;6.35;;;;;;;12.43;95.08;98797.06;5036337;28;20116;-77
2021/09/02 05:28:00;;;;;;;10.88;6.60;;;;;;;12.30;95.21;98782.06;5038450;28;20021;-75
2021/09/02 05:30:25;;;;;;;13.93;7.85;;;;;;;12.33;95.56;98797.94;5017923;28;20021;-78
2021/09/02 05:32:51;;;;;;;14.38;8.23;;;;;;;12.41;95.41;98798.41;5035401;28;20083;-75
2021/09/02 05:35:17;;;;;;;14.50;7.30;;;;;;;12.72;93.81;98800.63;5034028;28;20075;-75
2021/09/02 05:37:43;;;;;;;13.30;6.45;;;;;;;12.82;92.41;98800.53;5029429;28;20045;-76
2021/09/02 05:40:09;;;;;;;11.70;7.40;;;;;;;12.82;91.82;98805.22;5021274;28;20104;-75
2021/09/02 05:42:35;;;;;;;10.48;5.78;;;;;;;12.89;91.50;98806.53;5015002;28;20029;-75
2021/09/02 05:45:00;;;;;;;10.13;5.88;;;;;;;12.87;91.59;98792.25;5032315;28;20034;-75
2021/09/02 05:47:27;;;;;;;10.80;6.13;;;;;;;13.15;90.39;98804.38;5031165;28;20382;-76
2021/09/02 05:49:52;;;;;;;17.08;5.65;;;;;;;13.06;90.29;98799.78;5035487;28;20555;-76
2021/09/02 05:52:18;;;;;;;10.55;5.38;;;;;;;13.02;90.13;98805.03;5031238;28;20029;-76
2021/09/02 05:54:43;;;;;;;6.97;5.30;;;;;;;12.99;90.26;98804.78;5029590;28;20034;-77
2021/09/02 05:57:09;;;;;;;6.63;5.38;;;;;;;13.03;90.64;98805.84;5031618;28;20022;-83
2021/09/02 05:59:34;;;;;;;8.88;5.28;;;;;;;13.12;90.14;98806.88;5014378;28;20029;-76
2021/09/02 06:02:00;;;;;;;9.00;5.07;;;;;;;13.45;88.22;98803.19;5032744;28;20025;-76
2021/09/02 06:04:27;;;;;;;13.32;5.10;;;;;;;13.30;88.58;98806.13;5031041;28;20027;-75
2021/09/02 06:06:53;;;;;;;7.88;5.72;;;;;;;13.76;86.74;98814.63;5031835;28;20115;-76
2021/09/02 06:09:18;;;;;;;11.10;6.60;;;;;;;13.97;85.23;98809.69;5031077;28;20040;-77
2021/09/02 06:11:44;;;;;;;14.68;5.80;;;;;;;13.83;85.81;98813.16;5021177;28;20056;-76
2021/09/02 06:14:10;;;;;;;8.13;5.60;;;;;;;13.90;86.25;98819.13;5031737;28;20104;-77
2021/09/02 06:16:35;;;;;;;10.23;6.57;;;;;;;13.67;86.48;98821.91;5031972;28;20123;-75
2021/09/02 06:19:01;;;;;;;7.32;5.47;;;;;;;13.87;86.25;98822.47;5032499;28;20014;-76
2021/09/02 06:21:26;;;;;;;12.20;6.07;;;;;;;14.07;85.36;98826.03;5031396;28;20017;-75
2021/09/02 06:23:53;;;;;;;10.93;6.25;;;;;;;14.17;84.65;98823.16;5031867;28;20519;-82
2021/09/02 06:26:21;;;;;;;12.85;6.43;;;;;;;14.21;84.54;98826.94;5032156;28;20033;-78
2021/09/02 06:28:47;;;;;;;13.02;7.00;;;;;;;14.30;84.24;98825.16;5031604;28;20120;-77
2021/09/02 06:31:12;;;;;;;21.38;7.68;;;;;;;14.42;82.69;98817.28;5031050;28;20521;-77
2021/09/02 06:33:39;;;;;;;12.27;6.25;;;;;;;14.57;82.25;98818.97;5030529;28;20030;-77
2021/09/02 06:36:05;;;;;;;11.52;7.88;;;;;;;14.74;81.10;98824.78;5031762;28;20038;-84
2021/09/02 06:38:31;;;;;;;13.70;7.05;;;;;;;15.03;79.96;98817.09;5015992;28;20034;-81
2021/09/02 06:40:56;;;;;;;14.10;7.78;;;;;;;14.96;80.45;98806.47;5032505;28;20461;-81
2021/09/02 06:43:21;;;;;;;9.18;6.43;;;;;;;15.00;80.07;98814.97;5024375;28;20086;-84
2021/09/02 06:45:48;;;;;;;9.88;7.03;;;;;;;15.10;79.24;98819.47;5052788;28;20025;-82
2021/09/02 06:48:14;;;;;;;9.82;6.75;;;;;;;15.19;78.52;98821.19;5052286;28;20025;-84
2021/09/02 06:50:40;;;;;;;9.50;6.13;;;;;;;15.22;78.34;98830.81;5052411;28;20103;-82
2021/09/02 06:53:05;;;;;;;12.40;7.22;;;;;;;15.51;77.59;98839.63;5050793;28;20067;-82
2021/09/02 06:55:30;;;;;;;10.95;6.47;;;;;;;15.52;77.27;98841.28;5053743;28;20029;-85
2021/09/02 06:57:56;;;;;;;7.22;5.72;;;;;;;15.57;77.20;98843.94;5056691;28;20033;-82
2021/09/02 07:00:21;;;;;;;12.07;6.63;;;;;;;15.45;77.12;98832.56;5034330;28;20053;-84
2021/09/02 07:02:47;;;;;;;11.50;8.45;;;;;;;15.88;75.57;98842.19;5034276;28;20036;-83
2021/09/02 07:05:12;;;;;;;9.57;6.45;;;;;;;16.04;75.38;98831.63;5052142;28;20476;-83
2021/09/02 07:07:38;;;;;;;8.70;6.57;;;;;;;15.97;75.02;98836.78;5052016;28;20381;-80
2021/09/02 07:10:04;;;;;;;12.20;6.53;;;;;;;15.84;75.36;98835.66;5034348;28;20036;-83
2021/09/02 07:12:30;;;;;;;8.57;5.97;;;;;;;16.19;73.67;98833.28;5034595;28;20129;-83
2021/09/02 07:14:55;;;;;;;14.65;6.30;;;;;;;16.55;72.49;98840.44;5034153;28;20075;-81
2021/09/02 07:17:21;;;;;;;10.00;6.63;;;;;;;16.44;72.47;98829.94;5034158;28;20017;-82
2021/09/02 07:19:46;;;;;;;14.73;7.10;;;;;;;16.80;71.65;98850.06;5052081;28;20484;-82
2021/09/02 07:22:12;;;;;;;11.55;6.22;;;;;;;16.65;70.71;98852.38;5034209;28;20024;-84
2021/09/02 07:24:37;;;;;;;11.35;6.38;;;;;;;17.12;68.94;98847.03;5040805;28;20066;-83
2021/09/02 07:27:04;;;;;;;8.55;5.25;;;;;;;17.51;68.50;98849.03;5065101;28;20025;-82
2021/09/02 07:29:30;;;;;;;9.88;7.00;;;;;;;17.53;66.15;98857.03;5040186;28;20021;-81
2021/09/02 07:31:57;;;;;;;10.73;5.82;;;;;;;17.79;64.67;98852.44;5035113;28;20040;-80
2021/09/02 07:34:24;;;;;;;8.85;6.03;;;;;;;18.01;62.74;98860.63;5034866;28;20021;-80
2021/09/02 07:36:49;;;;;;;8.52;5.40;;;;;;;18.18;61.99;98860.69;5030552;28;20049;-80
2021/09/02 07:39:15;;;;;;;8.43;6.13;;;;;;;18.97;59.78;98863.22;5031815;28;20033;-80
2021/09/02 07:41:41;;;;;;;9.90;4.95;;;;;;;20.13;55.45;98861.06;5014273;28;20033;-79
2021/09/02 07:44:07;;;;;;;12.57;5.35;;;;;;;20.72;53.27;98856.25;5030801;28;20537;-81
2021/09/02 07:46:33;;;;;;;7.57;5.30;;;;;;;21.01;52.28;98858.13;5032053;28;20108;-79
2021/09/02 07:48:59;;;;;;;16.27;6.30;;;;;;;21.33;51.68;98872.06;5030709;28;20108;-79
2021/09/02 07:51:25;;;;;;;8.88;4.85;;;;;;;21.23;51.58;98855.00;5032185;28;20021;-79
2021/09/02 07:53:50;;;;;;;13.43;5.72;;;;;;;21.58;50.56;98872.16;5030849;28;20029;-79
2021/09/02 07:56:16;;;;;;;7.63;4.90;;;;;;;21.60;50.34;98861.47;5046426;28;20026;-79
2021/09/02 07:58:42;;;;;;;8.52;5.15;;;;;;;22.18;48.85;98874.19;5034773;28;20398;-77
2021/09/02 08:01:12;;;;;;;14.75;6.47;;;;;;;22.06;49.28;98872.22;5047418;28;20063;-80
2021/09/02 08:03:38;;;;;;;13.70;6.65;;;;;;;22.44;47.98;98860.69;5042918;28;20030;-79
2021/09/02 08:06:04;;;;;;;10.02;6.13;;;;;;;22.32;50.18;98871.84;5040965;28;20037;-79
2021/09/02 08:08:30;;;;;;;7.70;5.13;;;;;;;23.16;47.36;98873.66;5049056;28;20017;-80
2021/09/02 08:10:56;;;;;;;8.50;5.90;;;;;;;23.81;45.50;98857.47;5050332;28;20089;-79
2021/09/02 08:13:21;;;;;;;14.73;5.47;;;;;;;25.06;42.61;98876.81;5050490;28;20025;-78
2021/09/02 08:15:47;;;;;;;7.65;5.47;;;;;;;24.35;43.99;98866.03;5038904;28;20033;-78
2021/09/02 08:18:12;;;;;;;11.00;5.05;;;;;;;24.11;43.88;98866.22;5030267;28;20045;-76
2021/09/02 08:20:38;;;;;;;7.68;4.95;;;;;;;25.59;41.09;98875.13;5013254;28;20416;-78
2021/09/02 08:23:04;;;;;;;9.77;5.15;;;;;;;25.31;41.55;98869.75;5030628;28;20029;-78
2021/09/02 08:25:30;;;;;;;10.57;5.90;;;;;;;24.62;42.01;98872.66;5012968;28;20038;-78
2021/09/02 08:27:55;;;;;;;13.82;5.30;;;;;;;23.35;44.64;98873.78;5013049;28;20030;-80
2021/09/02 08:30:24;;;;;;;8.43;5.28;;;;;;;25.69;40.28;98862.47;5012876;28;20041;-78
2021/09/02 08:32:50;;;;;;;17.20;5.68;;;;;;;24.75;42.84;98874.13;5030723;28;20021;-78
2021/09/02 08:35:22;;;;;;;7.80;5.25;;;;;;;24.40;42.54;98869.34;5030964;28;20071;-78
2021/09/02 08:37:54;;;;;;;7.75;4.38;;;;;;;25.73;39.65;98869.78;5030245;28;20050;-79
2021/09/02 08:40:24;;;;;;;7.07;5.05;;;;;;;25.54;39.93;98870.63;5013601;28;20036;-78
2021/09/02 08:42:50;;;;;;;10.75;5.43;;;;;;;24.56;42.31;98858.09;5030885;28;20116;-78
2021/09/02 08:45:16;;;;;;;7.43;4.85;;;;;;;25.42;40.08;98864.34;5029760;28;20456;-78
2021/09/02 08:47:47;;;;;;;11.73;4.68;;;;;;;25.65;39.52;98868.03;5030382;28;20436;-76
2021/09/02 08:50:14;;;;;;;9.27;5.50;;;;;;;26.65;37.42;98864.88;5035034;28;20017;-78
2021/09/02 08:52:40;;;;;;;7.65;4.43;;;;;;;26.02;38.18;98848.66;5034035;28;20043;-78
2021/09/02 08:55:06;;;;;;;10.38;5.97;;;;;;;25.75;38.08;98852.59;5017101;28;20100;-79
2021/09/02 08:57:31;;;;;;;8.00;4.72;;;;;;;25.74;38.06;98843.38;5035275;28;20029;-77
2021/09/02 08:59:58;;;;;;;5.68;4.70;;;;;;;25.67;38.85;98848.03;5016507;28;20029;-77
2021/09/02 09:02:32;;;;;;;5.47;3.95;;;;;;;26.65;37.37;98853.66;5033767;28;20033;-77
2021/09/02 09:05:03;;;;;;;7.05;3.38;;;;;;;27.14;35.63;98845.91;5034653;28;20045;-77
2021/09/02 09:07:32;;;;;;;6.88;5.00;;;;;;;26.72;36.82;98848.94;5016206;28;20010;-79
2021/09/02 09:09:59;;;;;;;7.13;4.60;;;;;;;26.02;37.99;98843.03;5018399;28;20436;-78
2021/09/02 09:12:32;;;;;;;7.93;4.45;;;;;;;26.91;36.68;98846.00;5034539;28;20075;-78
2021/09/02 09:14:58;;;;;;;4.97;4.18;;;;;;;25.74;38.62;98837.75;5016647;28;20026;-79
2021/09/02 09:17:23;;;;;;;6.78;4.72;;;;;;;27.53;35.32;98850.00;5033863;28;20013;-77
2021/09/02 09:19:52;;;;;;;9.93;4.20;;;;;;;26.97;36.53;98843.69;5015901;28;20025;-77
2021/09/02 09:22:20;;;;;;;8.00;5.78;;;;;;;25.90;37.96;98826.41;5034110;28;20041;-77
2021/09/02 09:24:50;;;;;;;4.85;3.85;;;;;;;26.53;37.51;98835.84;5016108;28;20025;-78
2021/09/02 09:27:35;;;;;;;7.07;4.57;;;;;;;26.57;37.43;98827.47;5017744;28;20590;-77
2021/09/02 09:30:19;;;;;;;5.20;4.28;;;;;;;26.81;36.88;98829.84;5032117;28;20091;-77
2021/09/02 09:32:51;;;;;;;4.93;3.35;;;;;;;27.24;36.04;98817.13;5031710;28;20033;-77
2021/09/02 09:35:19;;;;;;;7.10;4.53;;;;;;;27.77;34.74;98811.25;5030986;28;20056;-77
2021/09/02 09:37:50;;;;;;;7.78;4.50;;;;;;;27.75;32.85;98805.22;5033277;28;20115;-77
2021/09/02 09:40:24;;;;;;;5.43;4.03;;;;;;;28.04;32.64;98804.22;5032306;28;20033;-78
2021/09/02 09:43:09;;;;;;;5.05;3.33;;;;;;;28.40;31.64;98803.31;5031775;28;20033;-78
2021/09/02 09:45:44;;;;;;;6.20;3.35;;;;;;;28.32;30.86;98795.25;5033865;28;20034;-77
2021/09/02 09:48:24;;;;;;;4.85;3.38;;;;;;;27.18;31.32;98799.00;5033466;28;20028;-80
2021/09/02 09:51:16;;;;;;;4.88;3.28;;;;;;;26.98;31.89;98791.91;5033345;28;20036;-76
2021/09/02 09:53:44;;;;;;;5.55;3.45;;;;;;;29.19;29.14;98794.06;5032361;28;20029;-78
2021/09/02 09:56:11;;;;;;;8.50;3.63;;;;;;;29.18;28.59;98783.97;5033103;28;20013;-78
2021/09/02 09:58:37;;;;;;;5.57;3.88;;;;;;;29.15;29.03;98781.97;5033150;28;20032;-79
2021/09/02 10:01:04;;;;;;;5.82;3.63;;;;;;;29.22;28.62;98781.97;5031958;28;20026;-78
2021/09/02 10:03:33;;;;;;;6.22;4.35;;;;;;;27.16;31.23;98778.88;5032658;28;20117;-78
2021/09/02 10:06:05;;;;;;;8.27;3.50;;;;;;;27.65;30.81;98773.00;5031681;28;20025;-77
2021/09/02 10:08:33;;;;;;;4.57;3.70;;;;;;;27.53;30.94;98776.91;5032600;28;20489;-77
2021/09/02 10:11:01;;;;;;;5.85;4.10;;;;;;;28.65;29.81;98778.97;5032370;28;20033;-78
2021/09/02 10:13:28;;;;;;;7.80;3.08;;;;;;;29.15;28.94;98777.13;5032155;28;20025;-78
2021/09/02 10:15:54;;;;;;;4.82;3.20;;;;;;;29.24;29.26;98779.59;5032288;28;20683;-77
2021/09/02 10:18:20;;;;;;;8.45;3.40;;;;;;;30.71;25.91;98789.25;5032104;28;20046;-79
2021/09/02 10:20:46;;;;;;;6.20;3.28;;;;;;;29.22;27.59;98773.53;5031943;28;20033;-78
2021/09/02 10:23:14;;;;;;;5.53;3.53;;;;;;;28.74;28.60;98783.41;5033228;28;20082;-77
2021/09/02 10:25:40;;;;;;;5.70;3.25;;;;;;;28.01;30.08;98765.63;5031573;28;20029;-77
2021/09/02 10:28:22;;;;;;;5.10;2.90;;;;;;;28.29;28.61;98768.66;5031312;28;20037;-78
2021/09/02 10:30:50;;;;;;;5.65;2.75;;;;;;;28.79;28.65;98777.41;5032333;28;20083;-79
2021/09/02 10:33:46;;;;;;;4.68;2.90;;;;;;;29.86;28.34;98776.47;5032833;28;20036;-78
2021/09/02 10:36:11;;;;;;;5.57;3.10;;;;;;;28.61;29.12;98775.28;5032720;28;20827;-78
2021/09/02 10:38:39;;;;;;;5.30;3.35;;;;;;;29.27;28.24;98767.50;5031017;28;20089;-77
2021/09/02 10:41:05;;;;;;;3.83;3.22;;;;;;;27.64;30.10;98771.38;5031445;28;20055;-78
2021/09/02 10:43:50;;;;;;;8.52;3.28;;;;;;;27.97;30.04;98760.00;5032720;28;20125;-77
2021/09/02 10:46:30;;;;;;;4.32;3.33;;;;;;;29.00;28.03;98757.75;5032635;28;20022;-78
2021/09/02 10:49:08;;;;;;;4.82;2.55;;;;;;;28.83;28.88;98752.84;5032521;28;20552;-78
2021/09/02 10:51:36;;;;;;;3.38;2.67;;;;;;;28.46;29.47;98761.53;5030617;28;20037;-78
2021/09/02 10:54:04;;;;;;;4.03;2.72;;;;;;;27.57;30.01;98757.22;5031125;28;20320;-78
2021/09/02 10:56:51;;;;;;;4.20;2.55;;;;;;;26.97;30.76;98754.59;5032626;28;20022;-79
2021/09/02 10:59:54;;;;;;;4.78;2.85;;;;;;;25.61;33.71;98754.22;5033048;28;20033;-81
2021/09/02 11:02:25;;;;;;;4.10;3.33;;;;;;;25.26;34.23;98751.59;5033305;28;20026;-83
2021/09/02 11:05:04;;;;;;;5.30;2.90;;;;;;;24.22;35.52;98745.06;5034725;28;20429;-81
2021/09/02 11:07:43;;;;;;;5.97;3.58;;;;;;;24.20;36.30;98747.41;5030704;28;20018;-82
2021/09/02 11:10:14;;;;;;;4.75;2.92;;;;;;;24.45;34.89;98737.59;5031760;28;20025;-81
2021/09/02 11:12:40;;;;;;;6.65;3.08;;;;;;;24.73;33.56;98737.34;5030448;28;20363;-81
2021/09/02 11:15:06;;;;;;;4.68;2.95;;;;;;;23.78;36.48;98730.44;5030991;28;20075;-80
2021/09/02 11:17:32;;;;;;;5.72;2.97;;;;;;;23.77;36.45;98733.63;5031041;28;20021;-80
2021/09/02 11:20:00;;;;;;;4.55;3.17;;;;;;;23.09;37.76;98728.28;5031774;28;20049;-80
2021/09/02 11:22:25;;;;;;;6.55;3.05;;;;;;;23.39;37.23;98732.28;5030489;28;20112;-81
2021/09/02 11:24:52;;;;;;;5.70;3.03;;;;;;;24.13;35.98;98744.47;5031696;28;20466;-82
2021/09/02 11:27:32;;;;;;;3.55;2.70;;;;;;;23.57;36.05;98731.91;5043685;28;20053;-80
2021/09/02 11:30:21;;;;;;;3.70;3.05;;;;;;;23.58;36.25;98725.97;5035268;28;20060;-81